sensor_id;sensor_type;location;lat;lon;timestamp;temperature;humidity
7530;DHT22;3806;52.270;10.544;2022-10-16T00:01:59;16.60;99.90
7530;DHT22;3806;52.270;10.544;2022-10-16T00:04:25;16.50;99.90
7530;DHT22;3806;52.270;10.544;2022-10-16T00:06:50;16.50;99.90
7530;DHT22;3806;52.270;10.544;2022-10-16T00:09:16;16.40;99.90
7530;DHT22;3806;52.270;10.544;2022-10-16T00:11:42;16.40;99.90
7530;DHT22;3806;52.270;10.544;2022-10-16T00:14:11;16.40;99.90
7530;DHT22;3806;52.270;10.544;2022-10-16T00:16:37;16.50;99.90
7530;DHT22;3806;52.270;10.544;2022-10-16T00:19:03;16.40;99.90
7530;DHT22;3806;52.270;10.544;2022-10-16T00:21:30;16.40;99.90
7530;DHT22;3806;52.270;10.544;2022-10-16T00:24:04;16.40;99.90
7530;DHT22;3806;52.270;10.544;2022-10-16T00:26:32;16.30;99.90
7530;DHT22;3806;52.270;10.544;2022-10-16T00:28:59;16.30;99.90
7530;DHT22;3806;52.270;10.544;2022-10-16T00:31:25;16.30;99.90
7530;DHT22;3806;52.270;10.544;2022-10-16T00:33:51;16.30;99.90
7530;DHT22;3806;52.270;10.544;2022-10-16T00:36:20;16.30;99.90
7530;DHT22;3806;52.270;10.544;2022-10-16T00:38:45;16.20;99.90
7530;DHT22;3806;52.270;10.544;2022-10-16T00:41:16;16.20;99.90
7530;DHT22;3806;52.270;10.544;2022-10-16T00:44:00;16.10;99.90
7530;DHT22;3806;52.270;10.544;2022-10-16T00:46:37;16.10;99.90
7530;DHT22;3806;52.270;10.544;2022-10-16T00:51:42;16.20;99.90
7530;DHT22;3806;52.270;10.544;2022-10-16T00:54:12;16.10;99.90
7530;DHT22;3806;52.270;10.544;2022-10-16T00:56:39;16.10;99.90
7530;DHT22;3806;52.270;10.544;2022-10-16T00:59:07;16.10;99.90
7530;DHT22;3806;52.270;10.544;2022-10-16T01:01:36;16.10;99.90
7530;DHT22;3806;52.270;10.544;2022-10-16T01:04:02;16.10;99.90
7530;DHT22;3806;52.270;10.544;2022-10-16T01:06:49;16.10;99.90
7530;DHT22;3806;52.270;10.544;2022-10-16T01:09:54;16.10;99.90
7530;DHT22;3806;52.270;10.544;2022-10-16T01:20:16;16.10;99.90
7530;DHT22;3806;52.270;10.544;2022-10-16T01:22:57;16.10;99.90
7530;DHT22;3806;52.270;10.544;2022-10-16T01:25:53;16.10;99.90
7530;DHT22;3806;52.270;10.544;2022-10-16T01:28:24;16.10;99.90
7530;DHT22;3806;52.270;10.544;2022-10-16T01:30:53;16.00;99.90
7530;DHT22;3806;52.270;10.544;2022-10-16T01:33:33;16.00;99.90
7530;DHT22;3806;52.270;10.544;2022-10-16T01:36:06;16.00;99.90
7530;DHT22;3806;52.270;10.544;2022-10-16T01:38:37;16.00;99.90
7530;DHT22;3806;52.270;10.544;2022-10-16T01:41:11;16.00;99.90
7530;DHT22;3806;52.270;10.544;2022-10-16T01:44:27;16.00;99.90
7530;DHT22;3806;52.270;10.544;2022-10-16T01:46:36;16.00;99.90
7530;DHT22;3806;52.270;10.544;2022-10-16T01:49:03;16.00;99.90
7530;DHT22;3806;52.270;10.544;2022-10-16T01:51:29;16.00;99.90
7530;DHT22;3806;52.270;10.544;2022-10-16T01:53:57;16.00;99.90
7530;DHT22;3806;52.270;10.544;2022-10-16T01:56:25;16.00;99.90
7530;DHT22;3806;52.270;10.544;2022-10-16T01:59:04;16.00;99.90
7530;DHT22;3806;52.270;10.544;2022-10-16T02:01:33;16.00;99.90
7530;DHT22;3806;52.270;10.544;2022-10-16T02:04:07;16.00;99.90
7530;DHT22;3806;52.270;10.544;2022-10-16T02:06:34;16.00;99.90
7530;DHT22;3806;52.270;10.544;2022-10-16T02:09:01;16.00;99.90
7530;DHT22;3806;52.270;10.544;2022-10-16T02:11:27;16.00;99.90
7530;DHT22;3806;52.270;10.544;2022-10-16T02:14:00;16.00;99.90
7530;DHT22;3806;52.270;10.544;2022-10-16T02:16:45;16.00;99.90
7530;DHT22;3806;52.270;10.544;2022-10-16T02:19:12;16.00;99.90
7530;DHT22;3806;52.270;10.544;2022-10-16T02:21:49;16.00;99.90
7530;DHT22;3806;52.270;10.544;2022-10-16T02:27:20;16.00;99.90
7530;DHT22;3806;52.270;10.544;2022-10-16T02:29:55;16.00;99.90
7530;DHT22;3806;52.270;10.544;2022-10-16T02:32:28;16.00;99.90
7530;DHT22;3806;52.270;10.544;2022-10-16T02:34:56;16.00;99.90
7530;DHT22;3806;52.270;10.544;2022-10-16T02:37:24;16.00;99.90
7530;DHT22;3806;52.270;10.544;2022-10-16T02:39:51;16.00;99.90
7530;DHT22;3806;52.270;10.544;2022-10-16T02:42:17;16.00;99.90
7530;DHT22;3806;52.270;10.544;2022-10-16T02:44:43;16.00;99.90
7530;DHT22;3806;52.270;10.544;2022-10-16T02:47:09;16.00;99.90
7530;DHT22;3806;52.270;10.544;2022-10-16T02:49:35;16.00;99.90
7530;DHT22;3806;52.270;10.544;2022-10-16T02:52:00;16.00;99.90
7530;DHT22;3806;52.270;10.544;2022-10-16T02:54:26;15.90;99.90
7530;DHT22;3806;52.270;10.544;2022-10-16T02:56:51;15.90;99.90
7530;DHT22;3806;52.270;10.544;2022-10-16T02:59:17;16.00;99.90
7530;DHT22;3806;52.270;10.544;2022-10-16T03:01:43;15.90;99.90
7530;DHT22;3806;52.270;10.544;2022-10-16T03:04:08;15.90;99.90
7530;DHT22;3806;52.270;10.544;2022-10-16T03:06:34;16.00;99.90
7530;DHT22;3806;52.270;10.544;2022-10-16T03:09:00;15.90;99.90
7530;DHT22;3806;52.270;10.544;2022-10-16T03:11:26;16.00;99.90
7530;DHT22;3806;52.270;10.544;2022-10-16T03:13:51;15.90;99.90
7530;DHT22;3806;52.270;10.544;2022-10-16T03:16:17;15.90;99.90
7530;DHT22;3806;52.270;10.544;2022-10-16T03:18:43;15.90;99.90
7530;DHT22;3806;52.270;10.544;2022-10-16T03:21:08;15.90;99.90
7530;DHT22;3806;52.270;10.544;2022-10-16T03:23:34;15.90;99.90
7530;DHT22;3806;52.270;10.544;2022-10-16T03:26:00;15.90;99.90
7530;DHT22;3806;52.270;10.544;2022-10-16T03:28:25;15.90;99.90
7530;DHT22;3806;52.270;10.544;2022-10-16T03:30:51;15.90;99.90
7530;DHT22;3806;52.270;10.544;2022-10-16T03:33:16;15.90;99.90
7530;DHT22;3806;52.270;10.544;2022-10-16T03:35:42;15.80;99.90
7530;DHT22;3806;52.270;10.544;2022-10-16T03:38:10;15.80;99.90
7530;DHT22;3806;52.270;10.544;2022-10-16T03:40:36;15.80;99.90
7530;DHT22;3806;52.270;10.544;2022-10-16T03:43:01;15.80;99.90
7530;DHT22;3806;52.270;10.544;2022-10-16T03:45:27;15.70;99.90
7530;DHT22;3806;52.270;10.544;2022-10-16T03:47:52;15.70;99.90
7530;DHT22;3806;52.270;10.544;2022-10-16T03:50:18;15.60;99.90
7530;DHT22;3806;52.270;10.544;2022-10-16T03:52:44;15.60;99.90
7530;DHT22;3806;52.270;10.544;2022-10-16T03:55:09;15.70;99.90
7530;DHT22;3806;52.270;10.544;2022-10-16T03:57:35;15.60;99.90
7530;DHT22;3806;52.270;10.544;2022-10-16T04:00:00;15.60;99.90
7530;DHT22;3806;52.270;10.544;2022-10-16T04:02:26;15.50;99.90
7530;DHT22;3806;52.270;10.544;2022-10-16T04:04:52;15.50;99.90
7530;DHT22;3806;52.270;10.544;2022-10-16T04:07:17;15.50;99.90
7530;DHT22;3806;52.270;10.544;2022-10-16T04:09:43;15.60;99.90
7530;DHT22;3806;52.270;10.544;2022-10-16T04:12:09;15.50;99.90
7530;DHT22;3806;52.270;10.544;2022-10-16T04:14:34;15.50;99.90
7530;DHT22;3806;52.270;10.544;2022-10-16T04:17:00;15.50;99.90
7530;DHT22;3806;52.270;10.544;2022-10-16T04:19:26;15.40;99.90
7530;DHT22;3806;52.270;10.544;2022-10-16T04:21:51;15.40;99.90
7530;DHT22;3806;52.270;10.544;2022-10-16T04:24:17;15.40;99.90
7530;DHT22;3806;52.270;10.544;2022-10-16T04:26:43;15.30;99.90
7530;DHT22;3806;52.270;10.544;2022-10-16T04:29:08;15.30;99.90
7530;DHT22;3806;52.270;10.544;2022-10-16T04:31:34;15.30;99.90
7530;DHT22;3806;52.270;10.544;2022-10-16T04:33:59;15.30;99.90
7530;DHT22;3806;52.270;10.544;2022-10-16T04:36:25;15.30;99.90
7530;DHT22;3806;52.270;10.544;2022-10-16T04:38:51;15.30;99.90
7530;DHT22;3806;52.270;10.544;2022-10-16T04:41:16;15.30;99.90
7530;DHT22;3806;52.270;10.544;2022-10-16T04:43:42;15.20;99.90
7530;DHT22;3806;52.270;10.544;2022-10-16T04:46:07;15.20;99.90
7530;DHT22;3806;52.270;10.544;2022-10-16T04:48:33;15.20;99.90
7530;DHT22;3806;52.270;10.544;2022-10-16T04:50:59;15.20;99.90
7530;DHT22;3806;52.270;10.544;2022-10-16T04:53:24;15.20;99.90
7530;DHT22;3806;52.270;10.544;2022-10-16T04:55:50;15.20;99.90
7530;DHT22;3806;52.270;10.544;2022-10-16T04:58:16;15.20;99.90
7530;DHT22;3806;52.270;10.544;2022-10-16T05:00:44;15.20;99.90
7530;DHT22;3806;52.270;10.544;2022-10-16T05:03:09;15.30;99.90
7530;DHT22;3806;52.270;10.544;2022-10-16T05:05:36;15.20;99.90
7530;DHT22;3806;52.270;10.544;2022-10-16T05:08:02;15.30;99.90
7530;DHT22;3806;52.270;10.544;2022-10-16T05:10:28;15.30;99.90
7530;DHT22;3806;52.270;10.544;2022-10-16T05:12:54;15.30;99.90
7530;DHT22;3806;52.270;10.544;2022-10-16T05:15:19;15.30;99.90
7530;DHT22;3806;52.270;10.544;2022-10-16T05:17:45;15.30;99.90
7530;DHT22;3806;52.270;10.544;2022-10-16T05:20:11;15.30;99.90
7530;DHT22;3806;52.270;10.544;2022-10-16T05:22:37;15.30;99.90
7530;DHT22;3806;52.270;10.544;2022-10-16T05:25:02;15.30;99.90
7530;DHT22;3806;52.270;10.544;2022-10-16T05:27:28;15.30;99.90
7530;DHT22;3806;52.270;10.544;2022-10-16T05:29:54;15.30;99.90
7530;DHT22;3806;52.270;10.544;2022-10-16T05:32:20;15.30;99.90
7530;DHT22;3806;52.270;10.544;2022-10-16T05:34:45;15.30;99.90
7530;DHT22;3806;52.270;10.544;2022-10-16T05:37:11;15.30;99.90
7530;DHT22;3806;52.270;10.544;2022-10-16T05:39:38;15.40;99.90
7530;DHT22;3806;52.270;10.544;2022-10-16T05:42:05;15.30;99.90
7530;DHT22;3806;52.270;10.544;2022-10-16T05:44:31;15.40;99.90
7530;DHT22;3806;52.270;10.544;2022-10-16T05:46:56;15.30;99.90
7530;DHT22;3806;52.270;10.544;2022-10-16T05:49:22;15.30;99.90
7530;DHT22;3806;52.270;10.544;2022-10-16T05:51:47;15.30;99.90
7530;DHT22;3806;52.270;10.544;2022-10-16T05:54:13;15.30;99.90
7530;DHT22;3806;52.270;10.544;2022-10-16T05:56:39;15.30;99.90
7530;DHT22;3806;52.270;10.544;2022-10-16T05:59:05;15.30;99.90
7530;DHT22;3806;52.270;10.544;2022-10-16T06:01:30;15.30;99.90
7530;DHT22;3806;52.270;10.544;2022-10-16T06:03:57;15.30;99.90
7530;DHT22;3806;52.270;10.544;2022-10-16T06:06:25;15.30;99.90
7530;DHT22;3806;52.270;10.544;2022-10-16T06:08:52;15.40;99.90
7530;DHT22;3806;52.270;10.544;2022-10-16T06:11:20;15.40;99.90
7530;DHT22;3806;52.270;10.544;2022-10-16T06:13:53;15.40;99.90
7530;DHT22;3806;52.270;10.544;2022-10-16T06:16:20;15.50;99.90
7530;DHT22;3806;52.270;10.544;2022-10-16T06:18:51;15.50;99.90
7530;DHT22;3806;52.270;10.544;2022-10-16T06:21:20;15.50;99.90
7530;DHT22;3806;52.270;10.544;2022-10-16T06:23:46;15.50;99.90
7530;DHT22;3806;52.270;10.544;2022-10-16T06:26:15;15.60;99.90
7530;DHT22;3806;52.270;10.544;2022-10-16T06:28:43;15.60;99.90
7530;DHT22;3806;52.270;10.544;2022-10-16T06:31:10;15.60;99.90
7530;DHT22;3806;52.270;10.544;2022-10-16T06:33:37;15.70;99.90
7530;DHT22;3806;52.270;10.544;2022-10-16T06:36:11;15.80;99.90
7530;DHT22;3806;52.270;10.544;2022-10-16T06:38:37;15.90;99.90
7530;DHT22;3806;52.270;10.544;2022-10-16T06:41:04;16.00;99.90
7530;DHT22;3806;52.270;10.544;2022-10-16T06:43:30;16.20;99.90
7530;DHT22;3806;52.270;10.544;2022-10-16T06:46:04;16.40;99.90
7530;DHT22;3806;52.270;10.544;2022-10-16T06:48:30;16.50;99.90
7530;DHT22;3806;52.270;10.544;2022-10-16T06:51:06;16.60;99.90
7530;DHT22;3806;52.270;10.544;2022-10-16T06:53:34;16.70;99.90
7530;DHT22;3806;52.270;10.544;2022-10-16T06:56:13;16.90;99.90
7530;DHT22;3806;52.270;10.544;2022-10-16T06:58:40;17.10;99.90
7530;DHT22;3806;52.270;10.544;2022-10-16T07:01:07;17.30;99.90
7530;DHT22;3806;52.270;10.544;2022-10-16T07:03:33;17.50;99.90
7530;DHT22;3806;52.270;10.544;2022-10-16T07:06:02;17.60;99.90
7530;DHT22;3806;52.270;10.544;2022-10-16T07:08:34;17.60;99.90
7530;DHT22;3806;52.270;10.544;2022-10-16T07:11:01;17.70;99.90
7530;DHT22;3806;52.270;10.544;2022-10-16T07:13:27;17.70;99.90
7530;DHT22;3806;52.270;10.544;2022-10-16T07:15:53;17.90;99.90
7530;DHT22;3806;52.270;10.544;2022-10-16T07:18:19;18.00;99.90
7530;DHT22;3806;52.270;10.544;2022-10-16T07:20:44;18.20;99.90
7530;DHT22;3806;52.270;10.544;2022-10-16T07:23:10;18.40;99.90
7530;DHT22;3806;52.270;10.544;2022-10-16T07:25:35;18.70;99.90
7530;DHT22;3806;52.270;10.544;2022-10-16T07:28:01;19.00;99.90
7530;DHT22;3806;52.270;10.544;2022-10-16T07:30:27;19.30;99.90
7530;DHT22;3806;52.270;10.544;2022-10-16T07:32:52;19.60;99.90
7530;DHT22;3806;52.270;10.544;2022-10-16T07:35:18;19.80;99.90
7530;DHT22;3806;52.270;10.544;2022-10-16T07:37:46;20.10;99.90
7530;DHT22;3806;52.270;10.544;2022-10-16T07:40:12;20.60;99.70
7530;DHT22;3806;52.270;10.544;2022-10-16T07:42:38;21.10;98.40
7530;DHT22;3806;52.270;10.544;2022-10-16T07:45:04;21.50;97.00
7530;DHT22;3806;52.270;10.544;2022-10-16T07:47:30;21.70;96.30
7530;DHT22;3806;52.270;10.544;2022-10-16T07:49:55;21.80;95.50
7530;DHT22;3806;52.270;10.544;2022-10-16T07:52:21;22.90;95.00
7530;DHT22;3806;52.270;10.544;2022-10-16T07:54:47;24.90;90.40
7530;DHT22;3806;52.270;10.544;2022-10-16T07:57:12;26.90;79.90
7530;DHT22;3806;52.270;10.544;2022-10-16T07:59:44;28.70;67.30
7530;DHT22;3806;52.270;10.544;2022-10-16T08:02:10;30.50;57.50
7530;DHT22;3806;52.270;10.544;2022-10-16T08:04:36;32.10;50.70
7530;DHT22;3806;52.270;10.544;2022-10-16T08:07:01;32.60;46.50
7530;DHT22;3806;52.270;10.544;2022-10-16T08:09:27;32.90;45.60
7530;DHT22;3806;52.270;10.544;2022-10-16T08:11:53;33.50;43.40
7530;DHT22;3806;52.270;10.544;2022-10-16T08:14:18;33.90;42.20
7530;DHT22;3806;52.270;10.544;2022-10-16T08:16:44;34.40;40.40
7530;DHT22;3806;52.270;10.544;2022-10-16T08:19:09;34.40;39.50
7530;DHT22;3806;52.270;10.544;2022-10-16T08:21:35;35.40;38.30
7530;DHT22;3806;52.270;10.544;2022-10-16T08:24:00;36.50;36.00
7530;DHT22;3806;52.270;10.544;2022-10-16T08:26:27;37.20;33.30
7530;DHT22;3806;52.270;10.544;2022-10-16T08:28:53;37.00;32.30
7530;DHT22;3806;52.270;10.544;2022-10-16T08:31:19;36.10;31.90
7530;DHT22;3806;52.270;10.544;2022-10-16T08:33:45;34.60;33.30
7530;DHT22;3806;52.270;10.544;2022-10-16T08:36:13;33.50;34.70
7530;DHT22;3806;52.270;10.544;2022-10-16T08:38:39;32.10;36.40
7530;DHT22;3806;52.270;10.544;2022-10-16T08:46:42;31.40;38.30
7530;DHT22;3806;52.270;10.544;2022-10-16T08:49:12;31.10;38.70
7530;DHT22;3806;52.270;10.544;2022-10-16T08:51:41;30.90;39.10
7530;DHT22;3806;52.270;10.544;2022-10-16T08:54:28;29.80;40.10
7530;DHT22;3806;52.270;10.544;2022-10-16T08:57:16;28.60;42.20
7530;DHT22;3806;52.270;10.544;2022-10-16T08:59:43;27.60;44.40
7530;DHT22;3806;52.270;10.544;2022-10-16T09:02:37;27.00;46.40
7530;DHT22;3806;52.270;10.544;2022-10-16T09:08:23;25.70;49.20
7530;DHT22;3806;52.270;10.544;2022-10-16T09:10:59;25.80;50.10
7530;DHT22;3806;52.270;10.544;2022-10-16T09:16:24;29.70;43.70
7530;DHT22;3806;52.270;10.544;2022-10-16T09:21:31;32.60;38.20
7530;DHT22;3806;52.270;10.544;2022-10-16T09:24:10;33.90;35.80
7530;DHT22;3806;52.270;10.544;2022-10-16T09:26:37;34.60;34.00
7530;DHT22;3806;52.270;10.544;2022-10-16T09:29:03;35.20;33.30
7530;DHT22;3806;52.270;10.544;2022-10-16T09:31:28;36.20;32.10
7530;DHT22;3806;52.270;10.544;2022-10-16T09:34:00;37.40;30.10
7530;DHT22;3806;52.270;10.544;2022-10-16T09:36:43;37.90;29.60
7530;DHT22;3806;52.270;10.544;2022-10-16T09:39:11;37.70;29.30
7530;DHT22;3806;52.270;10.544;2022-10-16T09:41:42;36.80;29.50
7530;DHT22;3806;52.270;10.544;2022-10-16T09:44:25;35.80;30.10
7530;DHT22;3806;52.270;10.544;2022-10-16T09:47:01;34.50;31.50
7530;DHT22;3806;52.270;10.544;2022-10-16T09:49:27;34.20;32.10
7530;DHT22;3806;52.270;10.544;2022-10-16T09:52:14;34.80;32.00
7530;DHT22;3806;52.270;10.544;2022-10-16T09:55:00;36.10;30.70
7530;DHT22;3806;52.270;10.544;2022-10-16T09:57:27;37.30;29.00
7530;DHT22;3806;52.270;10.544;2022-10-16T09:59:57;36.70;29.00
7530;DHT22;3806;52.270;10.544;2022-10-16T10:02:49;35.80;29.40
7530;DHT22;3806;52.270;10.544;2022-10-16T10:05:21;34.60;30.50
7530;DHT22;3806;52.270;10.544;2022-10-16T10:07:56;34.50;30.90
7530;DHT22;3806;52.270;10.544;2022-10-16T10:10:27;34.30;30.90
7530;DHT22;3806;52.270;10.544;2022-10-16T10:12:54;34.20;30.90
7530;DHT22;3806;52.270;10.544;2022-10-16T10:15:21;33.30;32.20
7530;DHT22;3806;52.270;10.544;2022-10-16T10:17:57;32.70;32.70
7530;DHT22;3806;52.270;10.544;2022-10-16T10:20:29;32.20;33.40
7530;DHT22;3806;52.270;10.544;2022-10-16T10:22:56;33.10;32.70
7530;DHT22;3806;52.270;10.544;2022-10-16T10:25:27;34.50;31.00
7530;DHT22;3806;52.270;10.544;2022-10-16T10:30:56;34.30;30.40
7530;DHT22;3806;52.270;10.544;2022-10-16T10:33:57;34.80;29.80
7530;DHT22;3806;52.270;10.544;2022-10-16T10:37:22;35.60;29.00
7530;DHT22;3806;52.270;10.544;2022-10-16T10:42:36;37.70;27.00
7530;DHT22;3806;52.270;10.544;2022-10-16T10:45:26;38.00;26.90
7530;DHT22;3806;52.270;10.544;2022-10-16T10:48:03;38.70;26.30
7530;DHT22;3806;52.270;10.544;2022-10-16T10:50:52;39.20;25.30
7530;DHT22;3806;52.270;10.544;2022-10-16T10:53:51;38.80;25.30
7530;DHT22;3806;52.270;10.544;2022-10-16T11:01:33;35.90;26.70
7530;DHT22;3806;52.270;10.544;2022-10-16T11:06:51;35.30;27.80
7530;DHT22;3806;52.270;10.544;2022-10-16T11:09:26;34.90;28.10
7530;DHT22;3806;52.270;10.544;2022-10-16T11:12:00;34.20;28.40
7530;DHT22;3806;52.270;10.544;2022-10-16T11:14:43;33.90;29.10
7530;DHT22;3806;52.270;10.544;2022-10-16T11:17:22;33.30;28.50
7530;DHT22;3806;52.270;10.544;2022-10-16T11:19:56;31.90;28.60
7530;DHT22;3806;52.270;10.544;2022-10-16T11:22:34;30.30;30.20
7530;DHT22;3806;52.270;10.544;2022-10-16T11:27:51;30.00;30.90
7530;DHT22;3806;52.270;10.544;2022-10-16T11:30:26;30.00;30.40
7530;DHT22;3806;52.270;10.544;2022-10-16T11:33:18;29.80;30.50
7530;DHT22;3806;52.270;10.544;2022-10-16T11:36:00;29.20;31.20
7530;DHT22;3806;52.270;10.544;2022-10-16T11:38:28;28.20;32.50
7530;DHT22;3806;52.270;10.544;2022-10-16T11:41:00;27.50;33.70
7530;DHT22;3806;52.270;10.544;2022-10-16T11:43:40;26.90;35.00
7530;DHT22;3806;52.270;10.544;2022-10-16T11:46:15;26.40;36.00
7530;DHT22;3806;52.270;10.544;2022-10-16T11:51:38;25.60;38.20
7530;DHT22;3806;52.270;10.544;2022-10-16T11:56:41;24.90;40.00
7530;DHT22;3806;52.270;10.544;2022-10-16T11:59:33;24.70;40.30
7530;DHT22;3806;52.270;10.544;2022-10-16T12:04:50;24.20;41.70
7530;DHT22;3806;52.270;10.544;2022-10-16T12:07:30;23.90;42.40
7530;DHT22;3806;52.270;10.544;2022-10-16T12:09:57;23.60;42.90
7530;DHT22;3806;52.270;10.544;2022-10-16T12:15:47;23.20;44.00
7530;DHT22;3806;52.270;10.544;2022-10-16T12:17:47;23.20;44.40
7530;DHT22;3806;52.270;10.544;2022-10-16T12:20:21;23.00;44.70
7530;DHT22;3806;52.270;10.544;2022-10-16T12:22:56;22.90;45.00
7530;DHT22;3806;52.270;10.544;2022-10-16T12:25:31;23.00;45.40
7530;DHT22;3806;52.270;10.544;2022-10-16T12:30:28;23.60;45.00
7530;DHT22;3806;52.270;10.544;2022-10-16T12:33:01;24.20;44.80
7530;DHT22;3806;52.270;10.544;2022-10-16T12:35:30;25.10;43.70
7530;DHT22;3806;52.270;10.544;2022-10-16T12:38:08;25.70;42.70
7530;DHT22;3806;52.270;10.544;2022-10-16T12:40:38;26.50;41.50
7530;DHT22;3806;52.270;10.544;2022-10-16T12:43:44;27.00;39.90
7530;DHT22;3806;52.270;10.544;2022-10-16T12:48:37;27.10;39.10
7530;DHT22;3806;52.270;10.544;2022-10-16T12:57:06;27.60;38.10
7530;DHT22;3806;52.270;10.544;2022-10-16T13:11:18;29.10;34.70
7530;DHT22;3806;52.270;10.544;2022-10-16T13:14:05;28.20;35.70
7530;DHT22;3806;52.270;10.544;2022-10-16T13:32:34;23.60;42.80
7530;DHT22;3806;52.270;10.544;2022-10-16T13:35:00;23.60;43.40
7530;DHT22;3806;52.270;10.544;2022-10-16T13:37:26;23.80;43.20
7530;DHT22;3806;52.270;10.544;2022-10-16T13:40:08;24.00;43.00
7530;DHT22;3806;52.270;10.544;2022-10-16T13:42:42;24.40;43.00
7530;DHT22;3806;52.270;10.544;2022-10-16T13:45:18;24.80;42.40
7530;DHT22;3806;52.270;10.544;2022-10-16T13:47:44;25.20;41.80
7530;DHT22;3806;52.270;10.544;2022-10-16T13:50:15;25.60;41.30
7530;DHT22;3806;52.270;10.544;2022-10-16T13:52:42;26.00;40.80
7530;DHT22;3806;52.270;10.544;2022-10-16T13:55:15;26.30;40.00
7530;DHT22;3806;52.270;10.544;2022-10-16T13:57:42;26.50;39.80
7530;DHT22;3806;52.270;10.544;2022-10-16T14:02:44;26.50;39.00
7530;DHT22;3806;52.270;10.544;2022-10-16T14:05:10;26.40;39.40
7530;DHT22;3806;52.270;10.544;2022-10-16T14:07:36;26.30;39.80
7530;DHT22;3806;52.270;10.544;2022-10-16T14:10:06;26.20;39.90
7530;DHT22;3806;52.270;10.544;2022-10-16T14:12:32;26.10;40.00
7530;DHT22;3806;52.270;10.544;2022-10-16T14:14:59;26.00;40.20
7530;DHT22;3806;52.270;10.544;2022-10-16T14:17:28;25.80;40.40
7530;DHT22;3806;52.270;10.544;2022-10-16T14:19:56;25.60;40.70
7530;DHT22;3806;52.270;10.544;2022-10-16T14:25:01;25.10;41.20
7530;DHT22;3806;52.270;10.544;2022-10-16T14:27:34;24.80;41.60
7530;DHT22;3806;52.270;10.544;2022-10-16T14:30:16;24.50;41.90
7530;DHT22;3806;52.270;10.544;2022-10-16T14:32:59;24.20;42.20
7530;DHT22;3806;52.270;10.544;2022-10-16T14:37:53;23.60;43.00
7530;DHT22;3806;52.270;10.544;2022-10-16T14:40:22;23.30;43.70
7530;DHT22;3806;52.270;10.544;2022-10-16T14:42:49;23.00;44.30
7530;DHT22;3806;52.270;10.544;2022-10-16T14:45:19;22.80;44.80
7530;DHT22;3806;52.270;10.544;2022-10-16T14:47:58;22.60;45.10
7530;DHT22;3806;52.270;10.544;2022-10-16T14:50:24;22.40;45.60
7530;DHT22;3806;52.270;10.544;2022-10-16T14:52:50;22.30;46.00
7530;DHT22;3806;52.270;10.544;2022-10-16T14:55:15;22.10;46.50
7530;DHT22;3806;52.270;10.544;2022-10-16T14:57:43;21.90;46.90
7530;DHT22;3806;52.270;10.544;2022-10-16T15:00:23;21.80;47.40
7530;DHT22;3806;52.270;10.544;2022-10-16T15:02:49;21.70;47.90
7530;DHT22;3806;52.270;10.544;2022-10-16T15:07:43;21.60;48.40
7530;DHT22;3806;52.270;10.544;2022-10-16T15:10:09;21.50;48.60
7530;DHT22;3806;52.270;10.544;2022-10-16T15:12:35;21.40;48.70
7530;DHT22;3806;52.270;10.544;2022-10-16T15:15:01;21.30;49.00
7530;DHT22;3806;52.270;10.544;2022-10-16T15:17:27;21.20;49.30
7530;DHT22;3806;52.270;10.544;2022-10-16T15:19:52;21.10;49.80
7530;DHT22;3806;52.270;10.544;2022-10-16T15:22:18;21.00;50.30
7530;DHT22;3806;52.270;10.544;2022-10-16T15:24:43;20.90;50.70
7530;DHT22;3806;52.270;10.544;2022-10-16T15:27:09;20.80;51.10
7530;DHT22;3806;52.270;10.544;2022-10-16T15:29:35;20.80;51.60
7530;DHT22;3806;52.270;10.544;2022-10-16T15:32:00;20.70;52.00
7530;DHT22;3806;52.270;10.544;2022-10-16T15:34:26;20.60;52.30
7530;DHT22;3806;52.270;10.544;2022-10-16T15:36:52;20.60;52.80
7530;DHT22;3806;52.270;10.544;2022-10-16T15:39:19;20.50;53.20
7530;DHT22;3806;52.270;10.544;2022-10-16T15:41:46;20.40;53.60
7530;DHT22;3806;52.270;10.544;2022-10-16T15:44:16;20.40;54.10
7530;DHT22;3806;52.270;10.544;2022-10-16T15:46:42;20.30;54.50
7530;DHT22;3806;52.270;10.544;2022-10-16T15:49:09;20.20;54.90
7530;DHT22;3806;52.270;10.544;2022-10-16T15:51:37;20.20;55.50
7530;DHT22;3806;52.270;10.544;2022-10-16T15:54:03;20.10;55.90
7530;DHT22;3806;52.270;10.544;2022-10-16T15:56:29;20.10;56.70
7530;DHT22;3806;52.270;10.544;2022-10-16T15:58:55;20.10;57.50
7530;DHT22;3806;52.270;10.544;2022-10-16T16:01:20;20.00;58.50
7530;DHT22;3806;52.270;10.544;2022-10-16T16:03:47;20.00;59.50
7530;DHT22;3806;52.270;10.544;2022-10-16T16:06:13;19.90;60.10
7530;DHT22;3806;52.270;10.544;2022-10-16T16:08:39;19.80;61.10
7530;DHT22;3806;52.270;10.544;2022-10-16T16:11:07;19.80;62.00
7530;DHT22;3806;52.270;10.544;2022-10-16T16:13:34;19.70;63.10
7530;DHT22;3806;52.270;10.544;2022-10-16T16:15:59;19.60;63.90
7530;DHT22;3806;52.270;10.544;2022-10-16T16:18:25;19.60;64.90
7530;DHT22;3806;52.270;10.544;2022-10-16T16:20:51;19.50;65.80
7530;DHT22;3806;52.270;10.544;2022-10-16T16:23:17;19.50;66.70
7530;DHT22;3806;52.270;10.544;2022-10-16T16:25:44;19.40;67.50
7530;DHT22;3806;52.270;10.544;2022-10-16T16:28:10;19.30;68.50
7530;DHT22;3806;52.270;10.544;2022-10-16T16:30:39;19.20;69.60
7530;DHT22;3806;52.270;10.544;2022-10-16T16:33:05;19.20;71.10
7530;DHT22;3806;52.270;10.544;2022-10-16T16:35:30;19.00;72.00
7530;DHT22;3806;52.270;10.544;2022-10-16T16:37:56;18.90;73.00
7530;DHT22;3806;52.270;10.544;2022-10-16T16:40:22;18.90;74.20
7530;DHT22;3806;52.270;10.544;2022-10-16T16:42:48;18.80;75.20
7530;DHT22;3806;52.270;10.544;2022-10-16T16:45:14;18.70;76.30
7530;DHT22;3806;52.270;10.544;2022-10-16T16:47:39;18.60;77.80
7530;DHT22;3806;52.270;10.544;2022-10-16T16:50:05;18.50;78.90
7530;DHT22;3806;52.270;10.544;2022-10-16T16:52:33;18.40;79.80
7530;DHT22;3806;52.270;10.544;2022-10-16T16:54:58;18.30;81.20
7530;DHT22;3806;52.270;10.544;2022-10-16T16:57:24;18.20;82.90
7530;DHT22;3806;52.270;10.544;2022-10-16T16:59:50;18.20;84.10
7530;DHT22;3806;52.270;10.544;2022-10-16T17:02:17;18.00;85.20
7530;DHT22;3806;52.270;10.544;2022-10-16T17:04:42;17.90;86.00
7530;DHT22;3806;52.270;10.544;2022-10-16T17:07:08;17.80;86.90
7530;DHT22;3806;52.270;10.544;2022-10-16T17:09:34;17.80;87.80
7530;DHT22;3806;52.270;10.544;2022-10-16T17:11:59;17.70;88.70
7530;DHT22;3806;52.270;10.544;2022-10-16T17:14:25;17.60;89.50
7530;DHT22;3806;52.270;10.544;2022-10-16T17:16:51;17.60;90.10
7530;DHT22;3806;52.270;10.544;2022-10-16T17:19:18;17.50;90.50
7530;DHT22;3806;52.270;10.544;2022-10-16T17:21:45;17.40;90.90
7530;DHT22;3806;52.270;10.544;2022-10-16T17:24:12;17.40;91.40
7530;DHT22;3806;52.270;10.544;2022-10-16T17:26:38;17.30;91.80
7530;DHT22;3806;52.270;10.544;2022-10-16T17:29:06;17.20;92.20
7530;DHT22;3806;52.270;10.544;2022-10-16T17:31:35;17.20;92.70
7530;DHT22;3806;52.270;10.544;2022-10-16T17:34:04;17.20;92.90
7530;DHT22;3806;52.270;10.544;2022-10-16T17:36:32;17.10;93.00
7530;DHT22;3806;52.270;10.544;2022-10-16T17:38:59;17.10;93.10
7530;DHT22;3806;52.270;10.544;2022-10-16T17:41:28;17.10;93.30
7530;DHT22;3806;52.270;10.544;2022-10-16T17:43:54;17.10;93.70